RYR30JT LEZL-LEPA
Flight info
| Callsign | RYR30JT |
|---|---|
| Flight time | 1h 22m |
| Altitude | 36000 |
| Route | BUDIT DCT ETURA DCT TOSTO DCT OLPOS DCT BEGOX DCT LASPO DCT ORVUS M871 GODOX |
| Aircraft | A320/M-SDE3FGHIRWY/LB1 |
Departure
| Time | 2026-04-25 21:08 |
|---|---|
| Airport | Seville Airport (LEZL) |
Arrival
| Time | 2026-04-25 22:30 |
|---|---|
| Airport | Palma de Mallorca Airport (LEPA) |
| Time | Latitude | Longitude | Altitude | Speed | Heading |
|---|---|---|---|---|---|
| 2026-04-25 20:52 | 37.42186 | -5.89983 | 96 ft | 0 kts | 315° |
| 2026-04-25 21:01 | 37.42183 | -5.89980 | 96 ft | 2 kts | 315° |
| 2026-04-25 21:01 | 37.42174 | -5.89969 | 94 ft | 2 kts | 315° |
| 2026-04-25 21:01 | 37.42163 | -5.89955 | 93 ft | 2 kts | 316° |
| 2026-04-25 21:02 | 37.42147 | -5.89935 | 93 ft | 3 kts | 273° |
| 2026-04-25 21:02 | 37.42151 | -5.89918 | 93 ft | 0 kts | 202° |
| 2026-04-25 21:02 | 37.42139 | -5.89924 | 92 ft | 3 kts | 202° |
| 2026-04-25 21:03 | 37.42085 | -5.89926 | 95 ft | 14 kts | 168° |
| 2026-04-25 21:03 | 37.42004 | -5.89873 | 96 ft | 13 kts | 128° |
| 2026-04-25 21:03 | 37.41982 | -5.89757 | 96 ft | 15 kts | 90° |
| 2026-04-25 21:03 | 37.41982 | -5.89623 | 97 ft | 16 kts | 90° |
| 2026-04-25 21:04 | 37.41981 | -5.89477 | 98 ft | 17 kts | 91° |
| 2026-04-25 21:04 | 37.41981 | -5.89303 | 99 ft | 23 kts | 82° |
| 2026-04-25 21:04 | 37.41984 | -5.89074 | 101 ft | 29 kts | 90° |
| 2026-04-25 21:04 | 37.41984 | -5.88805 | 102 ft | 32 kts | 91° |
| 2026-04-25 21:05 | 37.41983 | -5.88540 | 104 ft | 31 kts | 90° |
| 2026-04-25 21:05 | 37.41982 | -5.88265 | 105 ft | 32 kts | 91° |
| 2026-04-25 21:05 | 37.41989 | -5.87984 | 107 ft | 33 kts | 90° |
| 2026-04-25 21:05 | 37.41987 | -5.87696 | 109 ft | 31 kts | 91° |
| 2026-04-25 21:06 | 37.41951 | -5.87458 | 112 ft | 26 kts | 130° |
| 2026-04-25 21:06 | 37.41822 | -5.87448 | 114 ft | 17 kts | 217° |
| 2026-04-25 21:06 | 37.41800 | -5.87508 | 117 ft | 0 kts | 268° |
| 2026-04-25 21:07 | 37.41800 | -5.87516 | 105 ft | 5 kts | 268° |
| 2026-04-25 21:07 | 37.41798 | -5.87868 | 111 ft | 76 kts | 270° |
| 2026-04-25 21:07 | 37.41792 | -5.88789 | 104 ft | 131 kts | 270° |
| 2026-04-25 21:07 | 37.41789 | -5.90124 | 159 ft | 167 kts | 270° |
| 2026-04-25 21:08 | 37.41820 | -5.91570 | 736 ft | 164 kts | 271° |
| 2026-04-25 21:08 | 37.42002 | -5.92990 | 1300 ft | 167 kts | 300° |
| 2026-04-25 21:08 | 37.42766 | -5.94076 | 1891 ft | 169 kts | 318° |
| 2026-04-25 21:08 | 37.43721 | -5.95085 | 2180 ft | 192 kts | 320° |
| 2026-04-25 21:09 | 37.46022 | -5.97490 | 2827 ft | 239 kts | 320° |
| 2026-04-25 21:09 | 37.47336 | -5.98926 | 3298 ft | 259 kts | 319° |
| 2026-04-25 21:09 | 37.48701 | -6.00461 | 4094 ft | 266 kts | 319° |
| 2026-04-25 21:10 | 37.50076 | -6.02042 | 4950 ft | 271 kts | 319° |
| 2026-04-25 21:10 | 37.51471 | -6.03668 | 5787 ft | 276 kts | 319° |
| 2026-04-25 21:10 | 37.52893 | -6.05331 | 6595 ft | 281 kts | 320° |
| 2026-04-25 21:10 | 37.54537 | -6.06650 | 7340 ft | 283 kts | 341° |
| 2026-04-25 21:11 | 37.56453 | -6.07123 | 8117 ft | 282 kts | 3° |
| 2026-04-25 21:11 | 37.58365 | -6.06677 | 8905 ft | 281 kts | 25° |
| 2026-04-25 21:11 | 37.60012 | -6.05388 | 9691 ft | 280 kts | 45° |
| 2026-04-25 21:11 | 37.61174 | -6.03437 | 10433 ft | 280 kts | 66° |
| 2026-04-25 21:12 | 37.61806 | -6.01062 | 10808 ft | 297 kts | 76° |
| 2026-04-25 21:12 | 37.62334 | -5.98489 | 11042 ft | 316 kts | 76° |
| 2026-04-25 21:12 | 37.62880 | -5.95727 | 11601 ft | 323 kts | 76° |
| 2026-04-25 21:12 | 37.63237 | -5.93897 | 12039 ft | 326 kts | 76° |
| 2026-04-25 21:13 | 37.63968 | -5.90186 | 12928 ft | 331 kts | 76° |
| 2026-04-25 21:13 | 37.64533 | -5.87348 | 13603 ft | 335 kts | 76° |
| 2026-04-25 21:13 | 37.65108 | -5.84481 | 14222 ft | 339 kts | 76° |
| 2026-04-25 21:13 | 37.65692 | -5.81583 | 14802 ft | 343 kts | 76° |
| 2026-04-25 21:14 | 37.66281 | -5.78651 | 15372 ft | 346 kts | 76° |
| 2026-04-25 21:14 | 37.66874 | -5.75688 | 15939 ft | 350 kts | 76° |
| 2026-04-25 21:14 | 37.67473 | -5.72691 | 16510 ft | 354 kts | 76° |
| 2026-04-25 21:14 | 37.68080 | -5.69666 | 17081 ft | 357 kts | 76° |
| 2026-04-25 21:15 | 37.68695 | -5.66600 | 17669 ft | 361 kts | 76° |
| 2026-04-25 21:15 | 37.69312 | -5.63528 | 18230 ft | 364 kts | 75° |
| 2026-04-25 21:15 | 37.69938 | -5.60413 | 18751 ft | 368 kts | 75° |
| 2026-04-25 21:15 | 37.70567 | -5.57268 | 19272 ft | 371 kts | 75° |
| 2026-04-25 21:16 | 37.71198 | -5.54092 | 19801 ft | 374 kts | 76° |
| 2026-04-25 21:16 | 37.71830 | -5.50890 | 20355 ft | 378 kts | 75° |
| 2026-04-25 21:16 | 37.72467 | -5.47661 | 20871 ft | 381 kts | 75° |
| 2026-04-25 21:16 | 37.73108 | -5.44403 | 21376 ft | 384 kts | 75° |
| 2026-04-25 21:17 | 37.73753 | -5.41117 | 21875 ft | 387 kts | 75° |
| 2026-04-25 21:17 | 37.74405 | -5.37803 | 22373 ft | 390 kts | 75° |
| 2026-04-25 21:17 | 37.75064 | -5.34462 | 22877 ft | 394 kts | 75° |
| 2026-04-25 21:17 | 37.75731 | -5.31093 | 23373 ft | 397 kts | 75° |
| 2026-04-25 21:18 | 37.76402 | -5.27698 | 23824 ft | 400 kts | 75° |
| 2026-04-25 21:18 | 37.77073 | -5.24280 | 24241 ft | 402 kts | 75° |
| 2026-04-25 21:18 | 37.77747 | -5.20840 | 24654 ft | 404 kts | 75° |
| 2026-04-25 21:18 | 37.78422 | -5.17385 | 25069 ft | 406 kts | 75° |
| 2026-04-25 21:19 | 37.79099 | -5.13907 | 25471 ft | 408 kts | 76° |
| 2026-04-25 21:19 | 37.79776 | -5.10411 | 25869 ft | 410 kts | 76° |
| 2026-04-25 21:19 | 37.80455 | -5.06901 | 26261 ft | 412 kts | 76° |
| 2026-04-25 21:19 | 37.81140 | -5.03368 | 26646 ft | 414 kts | 76° |
| 2026-04-25 21:20 | 37.81830 | -4.99823 | 27024 ft | 416 kts | 76° |
| 2026-04-25 21:20 | 37.82289 | -4.97463 | 27269 ft | 418 kts | 76° |
| 2026-04-25 21:20 | 37.83215 | -4.92675 | 27772 ft | 420 kts | 76° |
| 2026-04-25 21:20 | 37.83907 | -4.89075 | 28150 ft | 422 kts | 76° |
| 2026-04-25 21:21 | 37.84580 | -4.85449 | 28512 ft | 424 kts | 79° |
| 2026-04-25 21:21 | 37.84918 | -4.81789 | 28862 ft | 426 kts | 85° |
| 2026-04-25 21:21 | 37.85148 | -4.77991 | 29233 ft | 428 kts | 85° |
| 2026-04-25 21:21 | 37.85378 | -4.74280 | 29569 ft | 430 kts | 85° |
| 2026-04-25 21:22 | 37.85612 | -4.70502 | 29919 ft | 432 kts | 85° |
| 2026-04-25 21:22 | 37.85846 | -4.66702 | 30235 ft | 434 kts | 85° |
| 2026-04-25 21:22 | 37.86081 | -4.62869 | 30579 ft | 435 kts | 85° |
| 2026-04-25 21:22 | 37.86314 | -4.59063 | 30970 ft | 434 kts | 85° |
| 2026-04-25 21:23 | 37.86545 | -4.55253 | 31352 ft | 434 kts | 85° |
| 2026-04-25 21:23 | 37.86774 | -4.51451 | 31759 ft | 433 kts | 85° |
| 2026-04-25 21:23 | 37.87004 | -4.47645 | 32132 ft | 434 kts | 85° |
| 2026-04-25 21:23 | 37.87233 | -4.43837 | 32480 ft | 434 kts | 85° |
| 2026-04-25 21:24 | 37.87461 | -4.40025 | 32859 ft | 434 kts | 85° |
| 2026-04-25 21:24 | 37.87684 | -4.36214 | 33248 ft | 434 kts | 85° |
| 2026-04-25 21:24 | 37.87906 | -4.32402 | 33645 ft | 434 kts | 85° |
| 2026-04-25 21:24 | 37.88126 | -4.28598 | 34044 ft | 433 kts | 85° |
| 2026-04-25 21:25 | 37.88343 | -4.24796 | 34381 ft | 433 kts | 85° |
| 2026-04-25 21:25 | 37.88557 | -4.21045 | 34666 ft | 433 kts | 85° |
| 2026-04-25 21:25 | 37.88775 | -4.17243 | 34952 ft | 434 kts | 85° |
| 2026-04-25 21:25 | 37.88993 | -4.13433 | 35232 ft | 434 kts | 85° |
| 2026-04-25 21:26 | 37.89210 | -4.09627 | 35515 ft | 434 kts | 85° |
| 2026-04-25 21:26 | 37.89425 | -4.05816 | 35789 ft | 434 kts | 85° |
| 2026-04-25 21:26 | 37.89638 | -4.02003 | 36016 ft | 435 kts | 85° |
| 2026-04-25 21:26 | 37.89849 | -3.98169 | 36079 ft | 439 kts | 85° |
| 2026-04-25 21:27 | 37.90278 | -3.90342 | 36080 ft | 452 kts | 85° |
| 2026-04-25 21:27 | 37.90720 | -3.82306 | 36082 ft | 462 kts | 85° |
| 2026-04-25 21:28 | 37.91156 | -3.74322 | 36085 ft | 464 kts | 85° |
| 2026-04-25 21:28 | 37.91587 | -3.66165 | 36090 ft | 464 kts | 85° |
| 2026-04-25 21:29 | 37.92010 | -3.58009 | 36090 ft | 464 kts | 85° |
| 2026-04-25 21:29 | 37.92442 | -3.49851 | 36099 ft | 464 kts | 85° |
| 2026-04-25 21:30 | 37.92877 | -3.41683 | 36109 ft | 465 kts | 85° |
| 2026-04-25 21:30 | 37.93232 | -3.34900 | 36117 ft | 465 kts | 86° |
| 2026-04-25 21:31 | 37.93720 | -3.25352 | 36119 ft | 464 kts | 86° |
| 2026-04-25 21:31 | 37.94125 | -3.17192 | 36127 ft | 464 kts | 86° |
| 2026-04-25 21:32 | 37.94522 | -3.09038 | 36121 ft | 464 kts | 86° |
| 2026-04-25 21:32 | 37.94919 | -3.00938 | 36140 ft | 463 kts | 86° |
| 2026-04-25 21:33 | 37.95313 | -2.92809 | 36152 ft | 462 kts | 86° |
| 2026-04-25 21:33 | 37.95700 | -2.84691 | 36147 ft | 461 kts | 86° |
| 2026-04-25 21:34 | 37.96076 | -2.76583 | 36160 ft | 461 kts | 86° |
| 2026-04-25 21:34 | 37.96443 | -2.68474 | 36158 ft | 461 kts | 86° |
| 2026-04-25 21:35 | 37.96806 | -2.60363 | 36173 ft | 461 kts | 86° |
| 2026-04-25 21:35 | 37.97828 | -2.52400 | 36176 ft | 459 kts | 70° |
| 2026-04-25 21:36 | 37.99167 | -2.48738 | 36175 ft | 458 kts | 59° |
| 2026-04-25 21:36 | 38.01020 | -2.45455 | 36173 ft | 458 kts | 49° |
| 2026-04-25 21:36 | 38.05399 | -2.39582 | 36181 ft | 458 kts | 47° |
| 2026-04-25 21:37 | 38.08305 | -2.35683 | 36181 ft | 459 kts | 47° |
| 2026-04-25 21:37 | 38.14170 | -2.27802 | 36191 ft | 459 kts | 47° |
| 2026-04-25 21:38 | 38.17810 | -2.22908 | 36187 ft | 459 kts | 47° |
| 2026-04-25 21:38 | 38.22701 | -2.15826 | 36189 ft | 458 kts | 52° |
| 2026-04-25 21:39 | 38.26004 | -2.10485 | 36190 ft | 459 kts | 52° |
| 2026-04-25 21:39 | 38.30593 | -2.03073 | 36193 ft | 459 kts | 52° |
| 2026-04-25 21:40 | 38.33875 | -1.97766 | 36192 ft | 459 kts | 52° |
| 2026-04-25 21:40 | 38.37809 | -1.91373 | 36192 ft | 459 kts | 52° |
| 2026-04-25 21:41 | 38.41743 | -1.84969 | 36189 ft | 459 kts | 52° |
| 2026-04-25 21:41 | 38.45683 | -1.78570 | 36191 ft | 459 kts | 52° |
| 2026-04-25 21:42 | 38.49613 | -1.72160 | 36187 ft | 458 kts | 52° |
| 2026-04-25 21:42 | 38.53537 | -1.65740 | 36182 ft | 458 kts | 53° |
| 2026-04-25 21:43 | 38.57461 | -1.59314 | 36180 ft | 458 kts | 53° |
| 2026-04-25 21:43 | 38.61374 | -1.52883 | 36181 ft | 458 kts | 53° |
| 2026-04-25 21:44 | 38.65288 | -1.46444 | 36178 ft | 459 kts | 53° |
| 2026-04-25 21:45 | 38.71157 | -1.36767 | 36168 ft | 459 kts | 53° |
| 2026-04-25 21:45 | 38.75042 | -1.30356 | 36172 ft | 459 kts | 53° |
| 2026-04-25 21:46 | 38.78948 | -1.23883 | 36173 ft | 459 kts | 53° |
| 2026-04-25 21:46 | 38.82849 | -1.17405 | 36169 ft | 459 kts | 53° |
| 2026-04-25 21:47 | 38.86751 | -1.10928 | 36175 ft | 459 kts | 53° |
| 2026-04-25 21:47 | 38.90651 | -1.04448 | 36168 ft | 458 kts | 53° |
| 2026-04-25 21:48 | 38.94541 | -0.97960 | 36167 ft | 458 kts | 53° |
| 2026-04-25 21:48 | 38.98425 | -0.91462 | 36172 ft | 458 kts | 53° |
| 2026-04-25 21:49 | 39.02298 | -0.84958 | 36161 ft | 458 kts | 53° |
| 2026-04-25 21:49 | 39.06187 | -0.78465 | 36161 ft | 458 kts | 50° |
| 2026-04-25 21:50 | 39.10898 | -0.72947 | 36158 ft | 459 kts | 40° |
| 2026-04-25 21:50 | 39.15828 | -0.67716 | 36154 ft | 459 kts | 40° |
| 2026-04-25 21:51 | 39.20756 | -0.62469 | 36151 ft | 460 kts | 40° |
| 2026-04-25 21:51 | 39.25386 | -0.56814 | 36142 ft | 459 kts | 54° |
| 2026-04-25 21:51 | 39.27062 | -0.53323 | 36142 ft | 458 kts | 65° |
| 2026-04-25 21:52 | 39.28190 | -0.49492 | 36138 ft | 457 kts | 75° |
| 2026-04-25 21:52 | 39.28960 | -0.41363 | 36139 ft | 457 kts | 86° |
| 2026-04-25 21:53 | 39.29391 | -0.33218 | 36140 ft | 458 kts | 86° |
| 2026-04-25 21:53 | 39.29818 | -0.25009 | 36147 ft | 458 kts | 86° |
| 2026-04-25 21:54 | 39.30242 | -0.16797 | 36146 ft | 459 kts | 86° |
| 2026-04-25 21:54 | 39.30664 | -0.08575 | 36145 ft | 459 kts | 86° |
| 2026-04-25 21:55 | 39.31081 | -0.00348 | 36152 ft | 459 kts | 86° |
| 2026-04-25 21:55 | 39.31494 | 0.07881 | 36154 ft | 459 kts | 86° |
| 2026-04-25 21:56 | 39.31895 | 0.16118 | 36162 ft | 459 kts | 86° |
| 2026-04-25 21:56 | 39.32285 | 0.24352 | 36163 ft | 460 kts | 86° |
| 2026-04-25 21:57 | 39.32677 | 0.32575 | 35935 ft | 455 kts | 86° |
| 2026-04-25 21:57 | 39.32869 | 0.36640 | 35369 ft | 451 kts | 86° |
| 2026-04-25 21:57 | 39.33056 | 0.40655 | 34909 ft | 445 kts | 86° |
| 2026-04-25 21:57 | 39.33241 | 0.44625 | 34418 ft | 441 kts | 86° |
| 2026-04-25 21:58 | 39.33422 | 0.48571 | 33903 ft | 438 kts | 86° |
| 2026-04-25 21:58 | 39.33599 | 0.52479 | 33419 ft | 433 kts | 86° |
| 2026-04-25 21:58 | 39.33774 | 0.56341 | 32944 ft | 429 kts | 86° |
| 2026-04-25 21:58 | 39.33944 | 0.60168 | 32473 ft | 425 kts | 86° |
| 2026-04-25 21:59 | 39.34110 | 0.63962 | 32000 ft | 421 kts | 86° |
| 2026-04-25 21:59 | 39.34273 | 0.67715 | 31547 ft | 417 kts | 86° |
| 2026-04-25 21:59 | 39.34430 | 0.71386 | 31101 ft | 413 kts | 87° |
| 2026-04-25 22:00 | 39.34744 | 0.78729 | 30222 ft | 406 kts | 86° |
| 2026-04-25 22:00 | 39.34902 | 0.82353 | 29759 ft | 402 kts | 86° |
| 2026-04-25 22:00 | 39.35057 | 0.85933 | 29356 ft | 397 kts | 86° |
| 2026-04-25 22:00 | 39.35210 | 0.89477 | 28945 ft | 393 kts | 86° |
| 2026-04-25 22:01 | 39.35358 | 0.92984 | 28556 ft | 389 kts | 86° |
| 2026-04-25 22:01 | 39.35503 | 0.96460 | 28164 ft | 386 kts | 86° |
| 2026-04-25 22:01 | 39.35645 | 0.99919 | 27768 ft | 384 kts | 86° |
| 2026-04-25 22:01 | 39.35739 | 1.02241 | 27500 ft | 382 kts | 86° |
| 2026-04-25 22:02 | 39.35924 | 1.06766 | 26981 ft | 380 kts | 86° |
| 2026-04-25 22:02 | 39.36065 | 1.10165 | 26574 ft | 378 kts | 86° |
| 2026-04-25 22:02 | 39.36203 | 1.13552 | 26176 ft | 377 kts | 87° |
| 2026-04-25 22:02 | 39.36337 | 1.16925 | 25763 ft | 375 kts | 87° |
| 2026-04-25 22:03 | 39.36469 | 1.20290 | 25346 ft | 374 kts | 87° |
| 2026-04-25 22:03 | 39.36600 | 1.23644 | 24926 ft | 373 kts | 87° |
| 2026-04-25 22:03 | 39.36730 | 1.26992 | 24491 ft | 373 kts | 87° |
| 2026-04-25 22:03 | 39.36860 | 1.30335 | 24062 ft | 372 kts | 87° |
| 2026-04-25 22:04 | 39.36988 | 1.33673 | 23607 ft | 372 kts | 87° |
| 2026-04-25 22:04 | 39.37113 | 1.37003 | 23133 ft | 370 kts | 87° |
| 2026-04-25 22:04 | 39.37236 | 1.40311 | 22698 ft | 367 kts | 86° |
| 2026-04-25 22:04 | 39.37593 | 1.43560 | 22273 ft | 364 kts | 80° |
| 2026-04-25 22:05 | 39.38023 | 1.46767 | 21839 ft | 361 kts | 80° |
| 2026-04-25 22:05 | 39.38447 | 1.49953 | 21403 ft | 358 kts | 80° |
| 2026-04-25 22:05 | 39.38866 | 1.53110 | 20981 ft | 355 kts | 80° |
| 2026-04-25 22:05 | 39.39280 | 1.56241 | 20552 ft | 352 kts | 80° |
| 2026-04-25 22:06 | 39.39686 | 1.59349 | 20133 ft | 349 kts | 80° |
| 2026-04-25 22:06 | 39.40087 | 1.62436 | 19713 ft | 347 kts | 80° |
| 2026-04-25 22:06 | 39.40483 | 1.65502 | 19295 ft | 345 kts | 80° |
| 2026-04-25 22:06 | 39.40881 | 1.68552 | 18880 ft | 343 kts | 80° |
| 2026-04-25 22:07 | 39.41278 | 1.71584 | 18466 ft | 341 kts | 80° |
| 2026-04-25 22:07 | 39.41540 | 1.73583 | 18157 ft | 340 kts | 80° |
| 2026-04-25 22:07 | 39.42061 | 1.77588 | 17595 ft | 335 kts | 80° |
| 2026-04-25 22:07 | 39.42444 | 1.80550 | 17185 ft | 332 kts | 80° |
| 2026-04-25 22:08 | 39.42820 | 1.83485 | 16787 ft | 329 kts | 80° |
| 2026-04-25 22:08 | 39.43192 | 1.86392 | 16387 ft | 326 kts | 80° |
| 2026-04-25 22:08 | 39.43563 | 1.89278 | 15996 ft | 324 kts | 80° |
| 2026-04-25 22:08 | 39.43933 | 1.92141 | 15603 ft | 321 kts | 80° |
| 2026-04-25 22:09 | 39.44296 | 1.94984 | 15213 ft | 320 kts | 81° |
| 2026-04-25 22:09 | 39.44655 | 1.97814 | 14824 ft | 318 kts | 81° |
| 2026-04-25 22:09 | 39.45013 | 2.00629 | 14443 ft | 317 kts | 80° |
| 2026-04-25 22:09 | 39.45462 | 2.03378 | 14268 ft | 308 kts | 72° |
| 2026-04-25 22:10 | 39.46144 | 2.05980 | 14008 ft | 303 kts | 71° |
| 2026-04-25 22:10 | 39.46821 | 2.08540 | 13792 ft | 299 kts | 71° |
| 2026-04-25 22:10 | 39.47490 | 2.11086 | 13649 ft | 299 kts | 71° |
| 2026-04-25 22:10 | 39.48157 | 2.13625 | 13502 ft | 298 kts | 71° |
| 2026-04-25 22:11 | 39.48815 | 2.16127 | 13350 ft | 297 kts | 71° |
| 2026-04-25 22:11 | 39.49479 | 2.18657 | 13201 ft | 296 kts | 71° |
| 2026-04-25 22:11 | 39.50142 | 2.21183 | 13042 ft | 296 kts | 71° |
| 2026-04-25 22:11 | 39.50801 | 2.23699 | 12911 ft | 295 kts | 71° |
| 2026-04-25 22:12 | 39.51459 | 2.26212 | 12756 ft | 294 kts | 71° |
| 2026-04-25 22:12 | 39.52114 | 2.28718 | 12611 ft | 294 kts | 71° |
| 2026-04-25 22:12 | 39.52768 | 2.31222 | 12471 ft | 294 kts | 71° |
| 2026-04-25 22:12 | 39.53203 | 2.32882 | 12364 ft | 293 kts | 72° |
| 2026-04-25 22:13 | 39.54075 | 2.36230 | 12164 ft | 293 kts | 72° |
| 2026-04-25 22:13 | 39.54735 | 2.38718 | 12018 ft | 292 kts | 68° |
| 2026-04-25 22:13 | 39.55709 | 2.41018 | 11868 ft | 292 kts | 56° |
| 2026-04-25 22:13 | 39.56865 | 2.43172 | 11711 ft | 290 kts | 56° |
| 2026-04-25 22:14 | 39.58008 | 2.45324 | 11560 ft | 290 kts | 57° |
| 2026-04-25 22:14 | 39.59146 | 2.47477 | 11400 ft | 289 kts | 57° |
| 2026-04-25 22:14 | 39.60278 | 2.49624 | 11248 ft | 288 kts | 57° |
| 2026-04-25 22:14 | 39.61412 | 2.51767 | 11094 ft | 288 kts | 57° |
| 2026-04-25 22:15 | 39.62542 | 2.53902 | 10934 ft | 287 kts | 57° |
| 2026-04-25 22:15 | 39.63672 | 2.56035 | 10784 ft | 287 kts | 57° |
| 2026-04-25 22:15 | 39.64800 | 2.58164 | 10623 ft | 286 kts | 57° |
| 2026-04-25 22:16 | 39.67041 | 2.62411 | 10326 ft | 284 kts | 57° |
| 2026-04-25 22:16 | 39.68159 | 2.64525 | 10175 ft | 284 kts | 57° |
| 2026-04-25 22:16 | 39.69273 | 2.66634 | 10024 ft | 283 kts | 57° |
| 2026-04-25 22:16 | 39.70386 | 2.68747 | 9859 ft | 283 kts | 57° |
| 2026-04-25 22:17 | 39.71495 | 2.70856 | 9709 ft | 283 kts | 57° |
| 2026-04-25 22:17 | 39.72606 | 2.72969 | 9558 ft | 283 kts | 56° |
| 2026-04-25 22:17 | 39.73714 | 2.75074 | 9407 ft | 282 kts | 56° |
| 2026-04-25 22:17 | 39.74821 | 2.77174 | 9256 ft | 281 kts | 56° |
| 2026-04-25 22:18 | 39.75924 | 2.79271 | 9105 ft | 281 kts | 56° |
| 2026-04-25 22:18 | 39.77012 | 2.81338 | 8968 ft | 280 kts | 56° |
| 2026-04-25 22:18 | 39.78109 | 2.83428 | 8817 ft | 280 kts | 56° |
| 2026-04-25 22:18 | 39.79216 | 2.85541 | 8667 ft | 279 kts | 56° |
| 2026-04-25 22:19 | 39.80290 | 2.87594 | 8512 ft | 278 kts | 56° |
| 2026-04-25 22:19 | 39.81394 | 2.89701 | 8370 ft | 277 kts | 56° |
| 2026-04-25 22:19 | 39.82479 | 2.91773 | 8224 ft | 277 kts | 56° |
| 2026-04-25 22:19 | 39.83547 | 2.93812 | 8079 ft | 276 kts | 56° |
| 2026-04-25 22:20 | 39.84624 | 2.95871 | 7943 ft | 275 kts | 56° |
| 2026-04-25 22:20 | 39.85697 | 2.97928 | 7784 ft | 274 kts | 56° |
| 2026-04-25 22:20 | 39.86763 | 2.99976 | 7639 ft | 274 kts | 56° |
| 2026-04-25 22:20 | 39.87801 | 3.02052 | 7483 ft | 273 kts | 63° |
| 2026-04-25 22:21 | 39.88296 | 3.04410 | 7345 ft | 272 kts | 88° |
| 2026-04-25 22:21 | 39.87979 | 3.06823 | 7206 ft | 274 kts | 112° |
| 2026-04-25 22:21 | 39.86902 | 3.08857 | 6979 ft | 277 kts | 136° |
| 2026-04-25 22:21 | 39.85242 | 3.10097 | 6698 ft | 278 kts | 162° |
| 2026-04-25 22:22 | 39.83316 | 3.10305 | 6369 ft | 282 kts | 184° |
| 2026-04-25 22:22 | 39.81357 | 3.10067 | 6011 ft | 282 kts | 184° |
| 2026-04-25 22:22 | 39.79408 | 3.09819 | 5722 ft | 280 kts | 184° |
| 2026-04-25 22:22 | 39.77483 | 3.09572 | 5430 ft | 278 kts | 184° |
| 2026-04-25 22:23 | 39.75566 | 3.09327 | 5174 ft | 276 kts | 184° |
| 2026-04-25 22:23 | 39.73666 | 3.09086 | 4898 ft | 273 kts | 185° |
| 2026-04-25 22:23 | 39.71837 | 3.08492 | 4615 ft | 271 kts | 204° |
| 2026-04-25 22:23 | 39.70311 | 3.07142 | 4514 ft | 261 kts | 225° |
| 2026-04-25 22:24 | 39.69242 | 3.05330 | 4520 ft | 246 kts | 239° |
| 2026-04-25 22:24 | 39.68382 | 3.03489 | 4519 ft | 232 kts | 239° |
| 2026-04-25 22:24 | 39.67553 | 3.01711 | 4427 ft | 229 kts | 239° |
| 2026-04-25 22:24 | 39.66730 | 2.99955 | 4183 ft | 227 kts | 238° |
| 2026-04-25 22:25 | 39.65911 | 2.98207 | 3900 ft | 226 kts | 238° |
| 2026-04-25 22:25 | 39.65094 | 2.96466 | 3593 ft | 226 kts | 238° |
| 2026-04-25 22:25 | 39.64277 | 2.94726 | 3306 ft | 225 kts | 238° |
| 2026-04-25 22:25 | 39.63463 | 2.92993 | 3007 ft | 225 kts | 238° |
| 2026-04-25 22:26 | 39.62652 | 2.91265 | 2710 ft | 224 kts | 239° |
| 2026-04-25 22:26 | 39.61860 | 2.89581 | 2413 ft | 213 kts | 239° |
| 2026-04-25 22:26 | 39.61107 | 2.87980 | 2133 ft | 204 kts | 239° |
| 2026-04-25 22:26 | 39.60628 | 2.86962 | 1997 ft | 194 kts | 239° |
| 2026-04-25 22:27 | 39.59736 | 2.85068 | 1616 ft | 176 kts | 239° |
| 2026-04-25 22:27 | 39.59134 | 2.83791 | 1407 ft | 156 kts | 239° |
| 2026-04-25 22:27 | 39.58587 | 2.82634 | 1169 ft | 147 kts | 239° |
| 2026-04-25 22:27 | 39.58049 | 2.81527 | 932 ft | 144 kts | 238° |
| 2026-04-25 22:28 | 39.57535 | 2.80427 | 676 ft | 142 kts | 239° |
| 2026-04-25 22:28 | 39.57031 | 2.79327 | 525 ft | 142 kts | 239° |
| 2026-04-25 22:28 | 39.56684 | 2.78588 | 420 ft | 142 kts | 239° |
| 2026-04-25 22:28 | 39.56181 | 2.77505 | 257 ft | 142 kts | 238° |
| 2026-04-25 22:29 | 39.55653 | 2.76406 | 111 ft | 142 kts | 238° |
| 2026-04-25 22:29 | 39.55140 | 2.75316 | 45 ft | 140 kts | 239° |
| 2026-04-25 22:29 | 39.54710 | 2.74414 | 37 ft | 82 kts | 238° |
| 2026-04-25 22:30 | 39.54436 | 2.73773 | 38 ft | 11 kts | 294° |
| 2026-04-25 22:30 | 39.54495 | 2.73712 | 38 ft | 9 kts | 327° |
| 2026-04-25 22:30 | 39.54556 | 2.73674 | 38 ft | 11 kts | 348° |
| 2026-04-25 22:30 | 39.54594 | 2.73708 | 37 ft | 10 kts | 52° |
| 2026-04-25 22:31 | 39.54647 | 2.73828 | 38 ft | 14 kts | 61° |
| 2026-04-25 22:31 | 39.54698 | 2.73933 | 38 ft | 13 kts | 57° |
| 2026-04-25 22:31 | 39.54753 | 2.74046 | 38 ft | 16 kts | 58° |
| 2026-04-25 22:31 | 39.54848 | 2.74105 | 38 ft | 16 kts | 339° |
| 2026-04-25 22:32 | 39.54937 | 2.74033 | 38 ft | 13 kts | 307° |
| 2026-04-25 22:32 | 39.54937 | 2.73926 | 35 ft | 11 kts | 267° |
| 2026-04-25 22:32 | 39.54912 | 2.73836 | 38 ft | 9 kts | 248° |
| 2026-04-25 22:32 | 39.54903 | 2.73807 | 38 ft | 2 kts | 248° |
| 2026-04-25 22:33 | 39.54903 | 2.73806 | 38 ft | 0 kts | 248° |